createdAt,value
2022-12-22T00:01:57.048Z,16.11
2022-12-22T00:12:17.214Z,16.11
2022-12-22T00:22:43.698Z,16.07
2022-12-22T00:33:03.570Z,16.08
2022-12-22T00:43:23.368Z,16.06
2022-12-22T00:53:43.300Z,16.03
2022-12-22T01:04:03.277Z,16.03
2022-12-22T01:14:27.664Z,16.02
2022-12-22T01:24:47.785Z,16.02
2022-12-22T01:35:07.710Z,16.02
2022-12-22T01:45:36.796Z,16.02
2022-12-22T01:55:57.175Z,16.02
2022-12-22T02:06:35.709Z,16.03
2022-12-22T02:17:02.375Z,16.02
2022-12-22T02:27:22.168Z,16.02
2022-12-22T02:37:48.280Z,16.02
2022-12-22T02:48:22.253Z,16.00
2022-12-22T02:58:42.382Z,16.01
2022-12-22T03:09:02.143Z,16.02
2022-12-22T03:19:21.745Z,16.00
2022-12-22T03:29:23.275Z,15.99
2022-12-22T03:39:24.658Z,15.98
2022-12-22T03:49:26.300Z,15.98
2022-12-22T03:59:27.873Z,15.97
2022-12-22T04:09:29.261Z,15.96
2022-12-22T04:19:31.026Z,15.95
2022-12-22T04:29:32.597Z,15.92
2022-12-22T04:39:33.980Z,15.91
2022-12-22T04:49:35.373Z,15.92
2022-12-22T04:59:36.835Z,15.90
2022-12-22T05:09:39.531Z,15.88
2022-12-22T05:19:40.921Z,15.92
2022-12-22T05:29:42.347Z,16.00
2022-12-22T05:39:43.775Z,16.16
2022-12-22T05:49:45.254Z,16.33
2022-12-22T05:59:46.914Z,16.56
2022-12-22T06:09:48.454Z,16.72
2022-12-22T06:19:49.867Z,16.88
2022-12-22T06:29:51.274Z,17.01
2022-12-22T06:39:52.660Z,17.12
2022-12-22T06:49:54.064Z,17.18
2022-12-22T06:59:57.608Z,17.20
2022-12-22T07:09:59.506Z,17.26
2022-12-22T07:20:00.880Z,17.32
2022-12-22T07:30:02.275Z,17.47
2022-12-22T07:40:03.753Z,17.56
2022-12-22T07:50:24.138Z,17.57
2022-12-22T08:00:25.605Z,17.60
2022-12-22T08:10:27.179Z,17.64
2022-12-22T08:20:28.594Z,17.68
2022-12-22T08:30:30.075Z,17.72
2022-12-22T08:40:31.445Z,17.76
2022-12-22T08:50:32.830Z,17.81
2022-12-22T09:00:34.234Z,17.82
2022-12-22T09:10:35.663Z,17.80
2022-12-22T09:20:37.041Z,17.85
2022-12-22T09:30:38.444Z,17.90
2022-12-22T09:40:39.822Z,17.95
2022-12-22T09:50:41.498Z,17.98
2022-12-22T10:00:43.051Z,17.96
2022-12-22T10:10:44.563Z,17.94
2022-12-22T10:20:47.458Z,17.98
2022-12-22T10:30:48.975Z,18.01
2022-12-22T10:41:01.875Z,18.05
2022-12-22T10:51:08.400Z,18.06
2022-12-22T11:01:10.324Z,18.08
2022-12-22T11:11:43.620Z,18.14
2022-12-22T11:22:00.903Z,18.16
2022-12-22T11:32:28.495Z,18.18
2022-12-22T11:42:59.806Z,18.22
2022-12-22T11:53:24.102Z,18.25
2022-12-22T12:03:48.876Z,18.31
2022-12-22T12:13:58.162Z,18.33
2022-12-22T12:24:25.076Z,18.45
2022-12-22T12:34:27.404Z,18.49
2022-12-22T12:44:32.731Z,18.51
2022-12-22T12:54:38.510Z,18.53
2022-12-22T13:05:07.872Z,18.57
2022-12-22T13:15:27.943Z,18.57
2022-12-22T13:25:52.865Z,18.54
2022-12-22T13:35:58.760Z,18.41
2022-12-22T13:46:01.304Z,18.31
2022-12-22T13:56:04.420Z,18.21
2022-12-22T14:06:19.735Z,18.14
2022-12-22T14:16:21.185Z,18.08
2022-12-22T14:26:24.285Z,17.98
2022-12-22T14:36:26.618Z,17.92
2022-12-22T14:46:32.278Z,17.85
2022-12-22T14:56:36.527Z,17.77
2022-12-22T15:06:40.581Z,17.71
2022-12-22T15:16:41.987Z,17.67
2022-12-22T15:26:44.039Z,17.60
2022-12-22T15:36:45.415Z,17.56
2022-12-22T15:46:53.743Z,17.52
2022-12-22T15:56:55.130Z,17.48
2022-12-22T16:06:56.946Z,17.43
2022-12-22T16:16:58.327Z,17.37
2022-12-22T16:27:00.237Z,17.34
2022-12-22T16:37:01.779Z,17.30
2022-12-22T16:47:03.374Z,17.23
2022-12-22T16:57:04.941Z,17.20
2022-12-22T17:07:06.333Z,17.16
2022-12-22T17:17:16.570Z,17.11
2022-12-22T17:27:22.937Z,17.09
2022-12-22T17:37:24.493Z,17.02
2022-12-22T17:47:33.330Z,17.00
2022-12-22T17:57:35.508Z,16.97
2022-12-22T18:07:43.508Z,16.96
2022-12-22T18:17:45.483Z,16.94
2022-12-22T18:27:47.148Z,16.92
2022-12-22T18:37:49.216Z,16.91
2022-12-22T18:47:50.747Z,16.90
2022-12-22T18:57:54.095Z,16.88
2022-12-22T19:07:55.698Z,16.86
2022-12-22T19:17:57.322Z,16.84
2022-12-22T19:28:06.606Z,16.80
2022-12-22T19:38:17.413Z,16.80
2022-12-22T19:48:21.232Z,16.75
2022-12-22T19:58:27.531Z,16.74
2022-12-22T20:08:29.389Z,16.72
2022-12-22T20:18:30.846Z,16.70
2022-12-22T20:28:34.188Z,16.70
2022-12-22T20:38:37.331Z,16.65
2022-12-22T20:48:47.680Z,16.65
2022-12-22T20:58:49.095Z,16.66
2022-12-22T21:08:50.562Z,16.64
2022-12-22T21:18:52.363Z,16.64
2022-12-22T21:28:54.347Z,16.62
2022-12-22T21:38:58.769Z,16.63
2022-12-22T21:49:00.312Z,16.63
2022-12-22T21:59:03.947Z,16.60
2022-12-22T22:09:07.177Z,16.60
2022-12-22T22:19:08.871Z,16.61
2022-12-22T22:29:10.266Z,16.61
2022-12-22T22:39:11.684Z,16.61
2022-12-22T22:49:13.075Z,16.60
2022-12-22T22:59:14.634Z,16.59
2022-12-22T23:09:16.090Z,16.60
2022-12-22T23:19:17.778Z,16.59
2022-12-22T23:29:19.170Z,16.59
2022-12-22T23:39:20.556Z,16.56
2022-12-22T23:49:22.178Z,16.57
2022-12-22T23:59:23.551Z,16.55
